Řízení letového provozu České republiky
Letiste: LKPR Aktualizace: 29.04.2017 05:11:04  UTC
 METAR LKPR 29.04. 05:00 ...
METAR LKPR 290500Z 23012KT 7000 NSC 03/02 Q1016 NOSIG RMK REG QNH 1012=
 TAF LKPR 29.04. 05:00 ...
TAF LKPR 290500Z 2906/3012 23010KT 9999 SCT040      TEMPO 2909/2919 -SHRA FEW030TCU BKN035      PROB30 TEMPO 2913/2918 32016G30KT 5000 SHRA BKN014 SCT025TCU      BECMG 2919/2921 VRB02KT CAVOK      PROB30 TEMPO 3002/3005 3000 BR NSC      BECMG 3007/3009 08010KT      TEMPO 3009/3012 09012G24KT 9999 BKN030=